createdAt,value
2023-10-23T00:00:26.461Z,50.69
2023-10-23T00:02:54.970Z,50.71
2023-10-23T00:05:25.013Z,50.66
2023-10-23T00:07:53.422Z,50.81
2023-10-23T00:10:22.205Z,50.65
2023-10-23T00:12:51.895Z,50.73
2023-10-23T00:15:20.195Z,50.74
2023-10-23T00:17:49.019Z,50.78
2023-10-23T00:20:17.707Z,50.76
2023-10-23T00:22:47.664Z,50.80
2023-10-23T00:25:16.191Z,50.77
2023-10-23T00:27:44.558Z,50.74
2023-10-23T00:30:13.736Z,50.80
2023-10-23T00:32:42.875Z,50.80
2023-10-23T00:35:11.544Z,50.71
2023-10-23T00:37:39.955Z,50.74
2023-10-23T00:40:11.245Z,50.75
2023-10-23T00:42:39.763Z,50.89
2023-10-23T00:45:09.348Z,50.72
2023-10-23T00:47:37.877Z,50.98
2023-10-23T00:50:07.416Z,50.74
2023-10-23T00:52:36.192Z,51.03
2023-10-23T00:55:05.069Z,50.88
2023-10-23T00:57:35.330Z,50.77
2023-10-23T01:00:05.584Z,50.88
2023-10-23T01:02:34.568Z,50.84
2023-10-23T01:05:04.089Z,50.94
2023-10-23T01:07:32.490Z,50.95
2023-10-23T01:10:01.134Z,51.02
2023-10-23T01:12:30.462Z,50.97
2023-10-23T01:15:01.090Z,50.97
2023-10-23T01:17:30.058Z,50.98
2023-10-23T01:19:58.762Z,50.95
2023-10-23T01:22:27.622Z,50.90
2023-10-23T01:24:57.869Z,50.93
2023-10-23T01:27:27.831Z,50.86
2023-10-23T01:29:56.305Z,50.99
2023-10-23T01:32:24.792Z,51.06
2023-10-23T01:34:53.189Z,51.07
2023-10-23T01:37:21.775Z,51.12
2023-10-23T01:39:50.603Z,50.95
2023-10-23T01:42:19.026Z,51.10
2023-10-23T01:44:49.477Z,51.03
2023-10-23T01:47:18.303Z,51.11
2023-10-23T01:49:47.117Z,51.11
2023-10-23T01:52:15.999Z,51.05
2023-10-23T01:54:44.573Z,51.05
2023-10-23T01:57:13.261Z,51.23
2023-10-23T01:59:41.810Z,51.01
2023-10-23T02:02:11.539Z,51.12
2023-10-23T02:04:41.054Z,51.06
2023-10-23T02:07:09.570Z,51.21
2023-10-23T02:09:37.996Z,51.15
2023-10-23T02:12:06.790Z,51.03
2023-10-23T02:14:35.236Z,51.16
2023-10-23T02:17:03.973Z,51.04
2023-10-23T02:19:33.789Z,51.04
2023-10-23T02:22:02.663Z,51.23
2023-10-23T02:24:31.243Z,51.08
2023-10-23T02:26:59.792Z,51.08
2023-10-23T02:29:28.411Z,51.04
2023-10-23T02:31:56.878Z,51.19
2023-10-23T02:34:25.620Z,51.16
2023-10-23T02:36:55.969Z,51.13
2023-10-23T02:39:24.547Z,51.20
2023-10-23T02:41:53.133Z,51.27
2023-10-23T02:44:21.838Z,51.19
2023-10-23T02:46:52.009Z,51.18
2023-10-23T02:49:22.776Z,51.15
2023-10-23T02:51:51.313Z,51.31
2023-10-23T02:54:21.329Z,51.23
2023-10-23T02:56:49.827Z,51.17
2023-10-23T02:59:18.438Z,51.18
2023-10-23T03:01:47.422Z,51.28
2023-10-23T03:04:16.365Z,51.30
2023-10-23T03:06:44.682Z,51.15
2023-10-23T03:09:13.586Z,51.19
2023-10-23T03:11:43.669Z,51.28
2023-10-23T03:14:12.434Z,51.26
2023-10-23T03:16:41.053Z,51.29
2023-10-23T03:19:09.647Z,51.31
2023-10-23T03:21:38.109Z,51.32
2023-10-23T03:24:07.675Z,51.24
2023-10-23T03:26:36.263Z,51.28
2023-10-23T03:29:05.984Z,51.16
2023-10-23T03:31:34.675Z,51.20
2023-10-23T03:34:03.307Z,51.32
2023-10-23T03:36:32.118Z,51.35
2023-10-23T03:39:00.850Z,51.23
2023-10-23T03:41:29.378Z,51.40
2023-10-23T03:43:57.890Z,51.27
2023-10-23T03:46:27.692Z,51.27
2023-10-23T03:48:56.137Z,51.37
2023-10-23T03:51:24.992Z,51.47
2023-10-23T03:53:53.335Z,51.35
2023-10-23T03:56:21.857Z,51.22
2023-10-23T03:58:50.630Z,51.45
2023-10-23T04:01:19.290Z,51.31
2023-10-23T04:03:49.318Z,51.47
2023-10-23T04:06:17.889Z,51.39
2023-10-23T04:08:46.543Z,51.40
2023-10-23T04:11:15.815Z,51.35
2023-10-23T04:13:44.407Z,51.32
2023-10-23T04:16:13.552Z,51.57
2023-10-23T04:18:42.464Z,51.46
2023-10-23T04:21:14.774Z,51.60
2023-10-23T04:23:43.398Z,51.45
2023-10-23T04:26:11.743Z,51.48
2023-10-23T04:28:40.389Z,51.37
2023-10-23T04:31:08.710Z,51.49
2023-10-23T04:33:37.485Z,51.43
2023-10-23T04:36:06.278Z,51.45
2023-10-23T04:38:36.401Z,51.36
2023-10-23T04:41:04.888Z,51.53
2023-10-23T04:43:34.833Z,51.35
2023-10-23T04:46:03.578Z,51.50
2023-10-23T04:48:32.377Z,51.65
2023-10-23T04:51:04.844Z,51.63
2023-10-23T04:53:33.341Z,51.72
2023-10-23T04:56:07.217Z,51.59
2023-10-23T04:58:35.798Z,51.68
2023-10-23T05:01:04.783Z,51.52
2023-10-23T05:03:33.415Z,51.49
2023-10-23T05:06:02.003Z,51.43
2023-10-23T05:08:32.279Z,51.57
2023-10-23T05:11:08.691Z,51.86
2023-10-23T05:13:37.396Z,51.57
2023-10-23T05:16:06.986Z,51.54
2023-10-23T05:18:35.871Z,51.56
2023-10-23T05:21:08.596Z,51.69
2023-10-23T05:23:37.313Z,51.70
2023-10-23T05:26:05.748Z,51.72
2023-10-23T05:28:35.530Z,51.62
2023-10-23T05:31:04.124Z,51.64
2023-10-23T05:33:32.521Z,51.61
2023-10-23T05:36:05.526Z,51.73
2023-10-23T05:38:34.260Z,51.72
2023-10-23T05:41:03.571Z,51.65
2023-10-23T05:43:32.110Z,51.66
2023-10-23T05:46:05.317Z,51.65
2023-10-23T05:48:35.158Z,51.64
2023-10-23T05:51:05.108Z,51.71
2023-10-23T05:53:34.402Z,51.75
2023-10-23T05:56:05.278Z,51.75
2023-10-23T05:58:34.991Z,51.71
2023-10-23T06:01:08.582Z,51.88
2023-10-23T06:03:37.389Z,51.65
2023-10-23T06:06:06.553Z,51.68
2023-10-23T06:08:34.916Z,51.78
2023-10-23T06:11:04.057Z,51.61
2023-10-23T06:13:32.296Z,51.61
2023-10-23T06:16:04.361Z,51.75
2023-10-23T06:18:34.768Z,51.65
2023-10-23T06:21:05.725Z,51.68
2023-10-23T06:23:35.668Z,51.67
2023-10-23T06:26:04.281Z,51.81
2023-10-23T06:28:32.801Z,51.70
2023-10-23T06:31:06.888Z,51.84
2023-10-23T06:33:37.557Z,51.74
2023-10-23T06:36:07.505Z,51.81
2023-10-23T06:38:35.932Z,51.92
2023-10-23T06:41:06.315Z,51.66
2023-10-23T06:43:35.631Z,51.73
2023-10-23T06:46:05.943Z,51.68
2023-10-23T06:48:37.076Z,51.74
2023-10-23T06:51:06.486Z,51.82
2023-10-23T06:53:36.039Z,51.74
2023-10-23T06:56:04.767Z,51.77
2023-10-23T06:58:33.375Z,51.84
2023-10-23T07:01:08.166Z,51.77
2023-10-23T07:03:38.180Z,51.77
2023-10-23T07:06:08.021Z,51.67
2023-10-23T07:08:38.876Z,51.83
2023-10-23T07:11:14.383Z,51.92
2023-10-23T07:13:42.876Z,51.81
2023-10-23T07:16:11.249Z,51.96
2023-10-23T07:18:41.367Z,51.77
2023-10-23T07:21:10.665Z,51.76
2023-10-23T07:23:39.461Z,51.80
2023-10-23T07:26:12.205Z,51.88
2023-10-23T07:28:41.465Z,52.08
2023-10-23T07:31:10.266Z,51.81
2023-10-23T07:33:40.472Z,51.85
2023-10-23T07:36:11.795Z,51.81
2023-10-23T07:38:42.259Z,51.83
2023-10-23T07:41:10.916Z,51.90
2023-10-23T07:43:39.469Z,51.85
2023-10-23T07:46:16.525Z,51.71
2023-10-23T07:48:48.348Z,51.70
2023-10-23T07:51:16.629Z,51.90
2023-10-23T07:53:45.139Z,51.87
2023-10-23T07:56:14.683Z,51.82
2023-10-23T07:58:43.632Z,51.78
2023-10-23T08:01:13.524Z,51.97
2023-10-23T08:03:42.678Z,51.93
2023-10-23T08:06:16.527Z,51.98
2023-10-23T08:08:46.504Z,51.87
2023-10-23T08:11:15.740Z,51.93
2023-10-23T08:13:44.147Z,52.01
2023-10-23T08:16:13.053Z,51.95
2023-10-23T08:18:43.780Z,51.90
2023-10-23T08:21:16.205Z,52.14
2023-10-23T08:23:47.972Z,51.88
2023-10-23T08:26:16.811Z,51.94
2023-10-23T08:31:34.190Z,51.80
2023-10-23T08:34:06.098Z,51.97
2023-10-23T08:36:36.937Z,51.92
2023-10-23T08:39:05.918Z,52.00
2023-10-23T08:41:35.897Z,51.88
2023-10-23T08:44:06.184Z,51.93
2023-10-23T08:46:36.623Z,51.98
2023-10-23T08:49:05.807Z,52.00
2023-10-23T08:51:37.406Z,52.14
2023-10-23T08:54:12.348Z,52.04
2023-10-23T08:56:45.055Z,51.93
2023-10-23T08:59:14.534Z,52.03
2023-10-23T09:01:43.321Z,51.98
2023-10-23T09:04:13.730Z,52.09
2023-10-23T09:06:45.049Z,52.02
2023-10-23T09:09:14.086Z,52.05
2023-10-23T09:11:45.166Z,52.11
2023-10-23T09:14:25.741Z,52.19
2023-10-23T09:16:56.498Z,52.11
2023-10-23T09:19:35.450Z,52.21
2023-10-23T09:22:07.830Z,52.00
2023-10-23T09:24:36.422Z,51.91
2023-10-23T09:27:05.722Z,52.13
2023-10-23T09:29:34.882Z,52.17
2023-10-23T09:32:04.333Z,52.14
2023-10-23T09:34:34.630Z,52.01
2023-10-23T09:37:04.020Z,52.11
2023-10-23T09:39:39.309Z,51.94
2023-10-23T09:42:11.452Z,52.17
2023-10-23T09:44:41.032Z,52.04
2023-10-23T09:47:11.895Z,52.19
2023-10-23T09:49:44.294Z,52.07
2023-10-23T09:52:15.611Z,52.17
2023-10-23T09:54:49.827Z,52.25
2023-10-23T09:57:20.458Z,52.13
2023-10-23T09:59:55.707Z,52.26
2023-10-23T10:02:27.707Z,52.15
2023-10-23T10:05:03.641Z,52.11
2023-10-23T10:07:50.016Z,52.17
2023-10-23T10:10:21.111Z,52.23
2023-10-23T10:12:50.119Z,52.08
2023-10-23T10:15:19.024Z,52.19
2023-10-23T10:17:49.368Z,52.17
2023-10-23T10:20:20.884Z,52.19
2023-10-23T10:22:54.468Z,52.21
2023-10-23T10:25:27.177Z,52.28
2023-10-23T10:28:00.213Z,52.21
2023-10-23T10:30:47.349Z,52.52
2023-10-23T10:34:18.474Z,52.36
2023-10-23T10:36:09.986Z,52.17
2023-10-23T10:38:39.231Z,52.25
2023-10-23T10:41:17.428Z,52.44
2023-10-23T10:43:47.208Z,52.19
2023-10-23T10:46:22.279Z,52.42
2023-10-23T10:48:52.359Z,52.25
2023-10-23T10:51:24.077Z,52.17
2023-10-23T10:54:01.788Z,52.45
2023-10-23T10:56:32.433Z,52.23
2023-10-23T10:59:02.111Z,52.18
2023-10-23T11:01:31.181Z,52.30
2023-10-23T11:04:00.021Z,52.24
2023-10-23T11:06:28.465Z,52.15
2023-10-23T11:08:58.813Z,52.23
2023-10-23T11:11:28.800Z,52.17
2023-10-23T11:14:04.052Z,52.32
2023-10-23T11:16:34.522Z,52.22
2023-10-23T11:19:03.649Z,52.50
2023-10-23T11:21:34.266Z,52.34
2023-10-23T11:24:04.322Z,52.26
2023-10-23T11:26:33.143Z,52.46
2023-10-23T11:29:03.081Z,52.35
2023-10-23T11:31:31.894Z,52.31
2023-10-23T11:34:00.506Z,52.41
2023-10-23T11:36:32.836Z,52.39
2023-10-23T11:39:01.297Z,52.40
2023-10-23T11:41:30.091Z,52.39
2023-10-23T11:44:04.960Z,52.42
2023-10-23T11:46:35.177Z,52.54
2023-10-23T11:49:05.148Z,52.43
2023-10-23T11:51:33.829Z,52.38
2023-10-23T11:54:04.820Z,52.50
2023-10-23T11:56:34.064Z,52.51
2023-10-23T11:59:05.566Z,52.40
2023-10-23T12:01:33.996Z,52.47
2023-10-23T12:04:02.685Z,52.43
2023-10-23T12:06:31.890Z,52.53
2023-10-23T12:09:01.109Z,52.47
2023-10-23T12:11:30.588Z,52.46
2023-10-23T12:14:01.004Z,52.47
2023-10-23T12:16:31.919Z,52.61
2023-10-23T12:19:02.282Z,52.60
2023-10-23T12:21:31.280Z,52.44
2023-10-23T12:24:00.143Z,52.58
2023-10-23T12:26:28.817Z,52.43
2023-10-23T12:28:59.521Z,52.58
2023-10-23T12:31:28.882Z,52.47
2023-10-23T12:34:02.893Z,52.47
2023-10-23T12:36:32.248Z,52.55
2023-10-23T12:39:00.989Z,52.61
2023-10-23T12:41:29.797Z,52.55
2023-10-23T12:43:58.973Z,52.65
2023-10-23T12:46:27.535Z,52.69
2023-10-23T12:48:56.296Z,52.57
2023-10-23T12:51:27.985Z,52.54
2023-10-23T12:53:56.515Z,52.59
2023-10-23T12:56:25.319Z,52.44
2023-10-23T12:58:53.619Z,52.57
2023-10-23T13:01:22.379Z,52.55
2023-10-23T13:03:51.067Z,52.43
2023-10-23T13:06:20.375Z,52.49
2023-10-23T13:08:50.579Z,52.49
2023-10-23T13:11:19.311Z,52.63
2023-10-23T13:13:47.601Z,52.58
2023-10-23T13:16:16.048Z,52.47
2023-10-23T13:18:53.529Z,52.73
2023-10-23T13:21:33.468Z,52.70
2023-10-23T13:24:06.124Z,52.75
2023-10-23T13:26:38.689Z,52.56
2023-10-23T13:29:07.362Z,52.65
2023-10-23T13:31:35.821Z,52.65
2023-10-23T13:34:04.177Z,52.61
2023-10-23T13:36:32.438Z,52.63
2023-10-23T13:39:05.286Z,52.72
2023-10-23T13:41:35.149Z,52.65
2023-10-23T13:44:04.584Z,52.59
2023-10-23T13:46:34.417Z,52.71
2023-10-23T13:49:04.097Z,52.73
2023-10-23T13:51:32.460Z,52.63
2023-10-23T13:54:00.729Z,52.80
2023-10-23T13:56:29.155Z,52.77
2023-10-23T13:58:58.915Z,52.77
2023-10-23T14:01:27.739Z,52.72
2023-10-23T14:03:56.965Z,52.63
2023-10-23T14:06:26.537Z,52.80
2023-10-23T14:09:40.916Z,52.74
2023-10-23T14:12:00.463Z,52.86
2023-10-23T14:14:31.573Z,52.77
2023-10-23T14:17:00.324Z,52.81
2023-10-23T14:19:42.551Z,52.78
2023-10-23T14:22:14.764Z,52.80
2023-10-23T14:24:43.163Z,52.84
2023-10-23T14:27:11.446Z,52.78
2023-10-23T14:29:41.832Z,52.86
2023-10-23T14:32:10.844Z,52.81
2023-10-23T14:34:39.299Z,53.11
2023-10-23T14:37:07.842Z,52.86
2023-10-23T14:39:36.271Z,52.97
2023-10-23T14:42:04.664Z,52.85
2023-10-23T14:44:35.658Z,52.82
2023-10-23T14:47:06.003Z,52.90
2023-10-23T14:49:35.969Z,53.06
2023-10-23T14:52:04.575Z,53.02
2023-10-23T14:54:33.092Z,52.83
2023-10-23T14:57:01.701Z,52.86
2023-10-23T14:59:30.279Z,52.86
2023-10-23T15:02:00.064Z,52.96
2023-10-23T15:04:30.963Z,52.78
2023-10-23T15:07:00.987Z,52.88
2023-10-23T15:09:30.022Z,53.10
2023-10-23T15:11:58.516Z,53.00
2023-10-23T15:14:26.825Z,52.90
2023-10-23T15:16:55.570Z,52.80
2023-10-23T15:19:26.324Z,52.89
2023-10-23T15:21:56.241Z,52.98
2023-10-23T15:24:24.494Z,52.97
2023-10-23T15:26:52.812Z,53.05
2023-10-23T15:29:21.120Z,52.83
2023-10-23T15:31:49.422Z,52.92
2023-10-23T15:34:17.919Z,53.03
2023-10-23T15:36:46.357Z,53.05
2023-10-23T15:39:17.190Z,52.99
2023-10-23T15:41:45.863Z,53.03
2023-10-23T15:44:14.135Z,52.92
2023-10-23T15:46:42.810Z,52.92
2023-10-23T15:49:11.134Z,52.94
2023-10-23T15:51:39.684Z,53.04
2023-10-23T15:54:08.737Z,52.96
2023-10-23T15:56:39.625Z,53.11
2023-10-23T15:59:08.746Z,53.01
2023-10-23T16:01:37.586Z,52.93
2023-10-23T16:04:06.899Z,52.99
2023-10-23T16:06:37.882Z,52.93
2023-10-23T16:09:26.199Z,53.10
2023-10-23T16:11:57.037Z,52.98
2023-10-23T16:14:53.592Z,53.11
2023-10-23T16:17:26.465Z,53.11
2023-10-23T16:19:54.939Z,53.07
2023-10-23T16:22:24.050Z,53.07
2023-10-23T16:24:52.344Z,53.22
2023-10-23T16:27:23.257Z,53.17
2023-10-23T16:29:51.495Z,53.13
2023-10-23T16:32:19.762Z,53.12
2023-10-23T16:34:48.194Z,53.04
2023-10-23T16:37:16.456Z,53.18
2023-10-23T16:39:46.282Z,53.18
2023-10-23T16:42:14.669Z,53.07
2023-10-23T16:44:55.326Z,53.04
2023-10-23T16:47:24.621Z,53.10
2023-10-23T16:49:54.307Z,53.12
2023-10-23T16:52:22.626Z,53.24
2023-10-23T16:54:51.046Z,53.11
2023-10-23T16:57:19.391Z,53.14
2023-10-23T16:59:50.205Z,53.17
2023-10-23T17:02:18.731Z,53.13
2023-10-23T17:04:47.875Z,53.16
2023-10-23T17:07:18.269Z,53.18
2023-10-23T17:09:47.134Z,53.27
2023-10-23T17:12:15.527Z,53.23
2023-10-23T17:14:44.879Z,53.03
2023-10-23T17:17:14.676Z,53.18
2023-10-23T17:19:44.494Z,53.12
2023-10-23T17:22:13.099Z,53.18
2023-10-23T17:24:41.446Z,53.15
2023-10-23T17:27:10.583Z,53.09
2023-10-23T17:29:39.149Z,53.22
2023-10-23T17:32:09.803Z,53.23
2023-10-23T17:34:40.693Z,53.14
2023-10-23T17:37:09.114Z,53.38
2023-10-23T17:39:37.483Z,53.23
2023-10-23T17:42:06.882Z,53.30
2023-10-23T17:44:37.775Z,53.31
2023-10-23T17:47:06.163Z,53.30
2023-10-23T17:49:34.558Z,53.24
2023-10-23T17:52:05.041Z,53.39
2023-10-23T17:54:35.253Z,53.47
2023-10-23T17:57:03.896Z,53.62
2023-10-23T17:59:34.675Z,53.58
2023-10-23T18:02:03.806Z,53.57
2023-10-23T18:04:32.153Z,53.67
2023-10-23T18:07:00.508Z,53.70
2023-10-23T18:09:30.214Z,53.73
2023-10-23T18:11:58.704Z,53.57
2023-10-23T18:14:26.887Z,53.75
2023-10-23T18:16:55.273Z,53.62
2023-10-23T18:19:23.886Z,53.72
2023-10-23T18:21:52.208Z,53.77
2023-10-23T18:24:20.694Z,53.59
2023-10-23T18:26:50.692Z,53.87
2023-10-23T18:29:18.997Z,53.84
2023-10-23T18:31:47.789Z,53.91
2023-10-23T18:34:16.340Z,53.81
2023-10-23T18:36:44.633Z,53.83
2023-10-23T18:39:12.915Z,53.74
2023-10-23T18:41:41.203Z,53.98
2023-10-23T18:44:10.906Z,53.73
2023-10-23T18:46:39.525Z,53.99
2023-10-23T18:49:08.558Z,54.04
2023-10-23T18:51:36.848Z,53.98
2023-10-23T18:54:05.777Z,53.88
2023-10-23T18:56:34.646Z,53.90
2023-10-23T18:59:03.176Z,53.96
2023-10-23T19:01:33.073Z,54.01
2023-10-23T19:04:01.917Z,53.85
2023-10-23T19:06:31.872Z,53.98
2023-10-23T19:09:03.824Z,53.89
2023-10-23T19:11:33.011Z,54.08
2023-10-23T19:14:02.370Z,53.95
2023-10-23T19:16:30.960Z,53.97
2023-10-23T19:19:00.714Z,53.94
2023-10-23T19:21:29.047Z,53.99
2023-10-23T19:23:57.314Z,54.01
2023-10-23T19:26:26.603Z,53.98
2023-10-23T19:28:54.768Z,53.92
2023-10-23T19:31:26.026Z,53.88
2023-10-23T19:33:54.870Z,53.96
2023-10-23T19:36:26.093Z,54.01
2023-10-23T19:38:54.850Z,54.08
2023-10-23T19:41:29.281Z,53.91
2023-10-23T19:43:58.244Z,54.00
2023-10-23T19:46:27.144Z,53.94
2023-10-23T19:48:56.281Z,53.93
2023-10-23T19:51:26.800Z,53.94
2023-10-23T19:53:56.050Z,53.92
2023-10-23T19:56:29.615Z,54.04
2023-10-23T19:58:59.912Z,53.79
2023-10-23T20:01:28.496Z,54.10
2023-10-23T20:03:56.986Z,53.92
2023-10-23T20:06:27.070Z,53.87
2023-10-23T20:08:55.488Z,53.97
2023-10-23T20:11:23.721Z,54.09
2023-10-23T20:13:52.022Z,54.05
2023-10-23T20:16:20.392Z,54.08
2023-10-23T20:18:48.627Z,54.02
2023-10-23T20:21:17.417Z,53.95
2023-10-23T20:23:48.454Z,54.06
2023-10-23T20:26:17.855Z,54.09
2023-10-23T20:28:46.378Z,54.08
2023-10-23T20:31:16.473Z,54.09
2023-10-23T20:33:44.782Z,54.07
2023-10-23T20:36:13.409Z,54.22
2023-10-23T20:38:41.691Z,54.19
2023-10-23T20:41:18.691Z,54.41
2023-10-23T20:43:48.009Z,54.02
2023-10-23T20:46:16.716Z,54.19
2023-10-23T20:48:45.209Z,54.03
2023-10-23T20:51:14.740Z,54.23
2023-10-23T20:53:43.643Z,53.97
2023-10-23T20:56:11.868Z,54.11
2023-10-23T20:58:42.438Z,54.10
2023-10-23T21:01:10.802Z,53.97
2023-10-23T21:03:39.323Z,54.05
2023-10-23T21:06:08.380Z,53.92
2023-10-23T21:08:40.916Z,54.09
2023-10-23T21:11:09.450Z,53.85
2023-10-23T21:13:38.126Z,53.73
2023-10-23T21:16:09.078Z,53.81
2023-10-23T21:18:37.374Z,53.92
2023-10-23T21:21:06.065Z,53.82
2023-10-23T21:23:34.651Z,53.89
2023-10-23T21:26:05.076Z,54.00
2023-10-23T21:28:33.631Z,53.88
2023-10-23T21:31:02.555Z,54.07
2023-10-23T21:33:33.194Z,53.85
2023-10-23T21:36:01.494Z,53.87
2023-10-23T21:38:29.730Z,53.86
2023-10-23T21:40:57.974Z,53.97
2023-10-23T21:43:26.272Z,53.82
2023-10-23T21:46:09.387Z,53.95
2023-10-23T21:48:43.395Z,53.95
2023-10-23T21:51:11.604Z,53.73
2023-10-23T21:53:40.445Z,53.94
2023-10-23T21:56:09.745Z,53.90
2023-10-23T21:59:03.670Z,53.74
2023-10-23T22:01:29.367Z,53.89
2023-10-23T22:04:00.062Z,53.74
2023-10-23T22:06:28.990Z,53.87
2023-10-23T22:08:57.670Z,53.80
2023-10-23T22:11:26.441Z,53.82
2023-10-23T22:13:55.187Z,53.79
2023-10-23T22:16:23.698Z,53.88
2023-10-23T22:18:52.143Z,53.89
2023-10-23T22:21:21.756Z,53.74
2023-10-23T22:23:49.966Z,53.85
2023-10-23T22:26:18.247Z,53.81
2023-10-23T22:28:46.857Z,53.70
2023-10-23T22:31:15.271Z,53.85
2023-10-23T22:33:43.686Z,53.83
2023-10-23T22:36:12.048Z,53.83
2023-10-23T22:38:41.858Z,53.88
2023-10-23T22:41:10.151Z,53.76
2023-10-23T22:43:38.391Z,53.86
2023-10-23T22:46:07.230Z,53.87
2023-10-23T22:48:35.497Z,53.58
2023-10-23T22:51:04.031Z,53.88
2023-10-23T22:53:34.173Z,53.90
2023-10-23T22:56:04.811Z,53.83
2023-10-23T22:58:34.841Z,53.72
2023-10-23T23:01:03.765Z,53.88
2023-10-23T23:03:33.005Z,53.68
2023-10-23T23:06:06.879Z,53.89
2023-10-23T23:08:40.501Z,53.73
2023-10-23T23:11:10.966Z,53.75
2023-10-23T23:13:39.907Z,53.79
2023-10-23T23:16:09.168Z,53.87
2023-10-23T23:18:40.342Z,53.74
2023-10-23T23:21:09.737Z,53.65
2023-10-23T23:23:37.959Z,53.73
2023-10-23T23:26:06.492Z,53.85
2023-10-23T23:28:36.944Z,53.87
2023-10-23T23:31:05.286Z,53.57
2023-10-23T23:33:33.838Z,53.76
2023-10-23T23:36:02.767Z,53.71
2023-10-23T23:38:31.117Z,53.72
2023-10-23T23:40:59.416Z,53.67
2023-10-23T23:43:27.719Z,53.82
2023-10-23T23:45:58.502Z,53.81
2023-10-23T23:48:26.792Z,53.74
2023-10-23T23:50:55.015Z,53.74
2023-10-23T23:53:23.257Z,53.72
2023-10-23T23:55:51.487Z,53.60
2023-10-23T23:58:20.254Z,53.73
